Decoded Metar for KEHO (SHELBY MUNI in NC, USA) (IATA:EHO) | Meteo·Mobile Aviation Weather
aviador You're here:

KEHO Decoded Metar

SHELBY MUNI in NC, USA
Report Time2018-09-23 12:45:00
UTC Time2018-09-23 13:04:07
Flight Rules vfr VFR
WindCalm
Visibility9999 m
Phenomena:N/A
Clouds:N/A
Expected CloudBase > 400 ft AGL from Temp-Dew spread
CeilingNone
Temp20°C (ISA +7)
Dew Point19°C (94% RH)
QNH1020 hPa
Density Alt1,686 ft
Elevation846 ft
Report Wrong Elevation
Raw Report
METAR KEHO 231245Z AUTO 00000KT 10SM CLR 20/19 A3012 RMK AO2 T02040194=

Extra information for KEHO:More info

Metar Taf Metar & Taf Last 4 Metars F.Rules Stats Wind Profile Meteogram Temp Stats Airport Information Weather charts Add Link Nearby VenuesMetar ALERT Operation Metar Decoded Social comments

AIRNAV info for KEHO